createdAt,value
2023-04-02T00:00:18.060Z,84.47
2023-04-02T00:01:18.028Z,84.65
2023-04-02T00:02:18.080Z,84.49
2023-04-02T00:03:18.033Z,85.52
2023-04-02T00:04:18.082Z,85.50
2023-04-02T00:05:18.003Z,86.36
2023-04-02T00:06:17.945Z,83.92
2023-04-02T00:07:17.917Z,83.30
2023-04-02T00:08:17.934Z,82.53
2023-04-02T00:09:17.887Z,85.14
2023-04-02T00:10:17.873Z,83.65
2023-04-02T00:11:17.852Z,82.92
2023-04-02T00:12:17.872Z,85.50
2023-04-02T00:13:17.822Z,84.06
2023-04-02T00:14:17.808Z,84.27
2023-04-02T00:15:17.776Z,84.78
2023-04-02T00:16:17.794Z,85.33
2023-04-02T00:17:17.748Z,86.79
2023-04-02T00:18:17.761Z,86.42
2023-04-02T00:19:17.745Z,85.65
2023-04-02T00:20:17.752Z,84.89
2023-04-02T00:21:17.769Z,87.54
2023-04-02T00:22:17.790Z,84.79
2023-04-02T00:23:17.796Z,86.52
2023-04-02T00:24:17.831Z,85.19
2023-04-02T00:25:17.825Z,85.26
2023-04-02T00:26:17.845Z,84.89
2023-04-02T00:27:17.858Z,84.95
2023-04-02T00:28:17.922Z,83.66
2023-04-02T00:29:17.884Z,80.63
2023-04-02T00:30:17.909Z,85.49
2023-04-02T00:31:17.921Z,82.82
2023-04-02T00:32:18.006Z,84.74
2023-04-02T00:33:17.960Z,86.09
2023-04-02T00:34:17.981Z,79.78
2023-04-02T00:35:18.013Z,85.94
2023-04-02T00:36:18.011Z,82.69
2023-04-02T00:37:18.017Z,79.99
2023-04-02T00:38:18.052Z,84.72
2023-04-02T00:39:18.058Z,81.00
2023-04-02T00:40:18.071Z,82.32
2023-04-02T00:41:18.084Z,83.76
2023-04-02T00:42:18.110Z,82.52
2023-04-02T00:43:18.175Z,81.25
2023-04-02T00:44:18.135Z,84.28
2023-04-02T00:45:18.149Z,82.16
2023-04-02T00:46:18.177Z,82.37
2023-04-02T00:47:18.203Z,82.08
2023-04-02T00:48:18.200Z,80.83
2023-04-02T00:49:18.232Z,84.16
2023-04-02T00:50:18.239Z,83.25
2023-04-02T00:51:18.240Z,83.63
2023-04-02T00:52:18.266Z,81.94
2023-04-02T00:53:18.272Z,81.23
2023-04-02T00:54:18.287Z,80.46
2023-04-02T00:55:18.307Z,83.96
2023-04-02T00:56:18.357Z,78.44
2023-04-02T00:57:18.452Z,81.50
2023-04-02T00:58:18.371Z,83.07
2023-04-02T00:59:18.395Z,82.89
2023-04-02T01:00:18.415Z,82.78
2023-04-02T01:01:18.461Z,83.64
2023-04-02T01:02:18.577Z,82.95
2023-04-02T01:03:18.636Z,82.13
2023-04-02T01:04:18.486Z,81.50
2023-04-02T01:05:18.499Z,84.66
2023-04-02T01:06:18.512Z,79.82
2023-04-02T01:07:18.533Z,81.70
2023-04-02T01:08:18.570Z,83.33
2023-04-02T01:09:18.580Z,84.18
2023-04-02T01:10:18.614Z,82.45
2023-04-02T01:11:18.618Z,79.93
2023-04-02T01:12:18.640Z,81.77
2023-04-02T01:13:18.655Z,81.35
2023-04-02T01:14:18.686Z,81.73
2023-04-02T01:15:18.734Z,81.52
2023-04-02T01:16:18.762Z,80.70
2023-04-02T01:17:18.734Z,83.42
2023-04-02T01:18:18.761Z,81.59
2023-04-02T01:19:18.764Z,83.38
2023-04-02T01:20:18.806Z,82.79
2023-04-02T01:21:18.805Z,77.17
2023-04-02T01:22:18.833Z,82.39
2023-04-02T01:23:18.845Z,78.02
2023-04-02T01:24:18.872Z,80.19
2023-04-02T01:25:18.897Z,79.73
2023-04-02T01:26:18.903Z,81.92
2023-04-02T01:27:18.940Z,81.64
2023-04-02T01:28:18.950Z,80.78
2023-04-02T01:29:19.011Z,81.74
2023-04-02T01:30:19.008Z,76.20
2023-04-02T01:31:19.053Z,80.46
2023-04-02T01:32:19.046Z,80.41
2023-04-02T01:33:19.054Z,78.50
2023-04-02T01:34:19.094Z,74.57
2023-04-02T01:35:19.101Z,77.71
2023-04-02T01:36:19.180Z,78.94
2023-04-02T01:37:19.126Z,81.41
2023-04-02T01:38:19.160Z,81.04
2023-04-02T01:39:19.177Z,79.28
2023-04-02T01:40:19.208Z,80.02
2023-04-02T01:41:19.213Z,78.03
2023-04-02T01:42:19.250Z,80.61
2023-04-02T01:43:19.291Z,78.89
2023-04-02T01:44:19.256Z,79.11
2023-04-02T01:45:19.248Z,79.34
2023-04-02T01:46:19.260Z,81.04
2023-04-02T01:47:19.211Z,81.19
2023-04-02T01:48:19.202Z,82.67
2023-04-02T01:49:19.194Z,81.62
2023-04-02T01:50:19.179Z,80.30
2023-04-02T01:51:19.170Z,80.96
2023-04-02T01:52:19.148Z,78.43
2023-04-02T01:53:19.135Z,80.66
2023-04-02T01:54:19.121Z,78.42
2023-04-02T01:55:19.118Z,79.20
2023-04-02T01:56:19.171Z,77.78
2023-04-02T01:57:19.120Z,79.58
2023-04-02T01:58:19.078Z,80.59
2023-04-02T01:59:19.073Z,77.29
2023-04-02T02:00:19.087Z,82.62
2023-04-02T02:01:19.204Z,79.84
2023-04-02T02:02:19.163Z,82.58
2023-04-02T02:03:19.123Z,81.08
2023-04-02T02:04:19.124Z,82.98
2023-04-02T02:05:19.150Z,76.27
2023-04-02T02:06:19.187Z,79.53
2023-04-02T02:07:19.182Z,79.58
2023-04-02T02:08:19.207Z,78.35
2023-04-02T02:09:19.225Z,80.81
2023-04-02T02:10:19.266Z,82.37
2023-04-02T02:11:19.272Z,82.41
2023-04-02T02:12:19.298Z,77.96
2023-04-02T02:13:19.343Z,78.21
2023-04-02T02:14:19.344Z,81.50
2023-04-02T02:15:19.371Z,78.35
2023-04-02T02:16:19.456Z,76.74
2023-04-02T02:17:19.435Z,79.03
2023-04-02T02:18:19.437Z,80.17
2023-04-02T02:19:19.470Z,80.68
2023-04-02T02:20:19.524Z,79.23
2023-04-02T02:21:19.513Z,80.83
2023-04-02T02:22:19.539Z,79.30
2023-04-02T02:23:19.557Z,81.73
2023-04-02T02:24:19.577Z,76.40
2023-04-02T02:25:19.593Z,80.13
2023-04-02T02:26:19.638Z,82.66
2023-04-02T02:27:19.651Z,79.53
2023-04-02T02:28:19.675Z,80.71
2023-04-02T02:29:19.697Z,81.92
2023-04-02T02:30:19.717Z,78.35
2023-04-02T02:31:19.776Z,80.78
2023-04-02T02:32:19.803Z,79.80
2023-04-02T02:33:19.787Z,82.04
2023-04-02T02:34:19.817Z,78.13
2023-04-02T02:35:19.877Z,77.80
2023-04-02T02:36:19.873Z,81.44
2023-04-02T02:37:19.891Z,82.01
2023-04-02T02:38:19.918Z,77.92
2023-04-02T02:39:19.947Z,76.86
2023-04-02T02:40:19.998Z,79.79
2023-04-02T02:41:19.998Z,78.57
2023-04-02T02:42:20.039Z,79.22
2023-04-02T02:43:20.079Z,78.45
2023-04-02T02:44:20.213Z,80.16
2023-04-02T02:45:20.106Z,81.54
2023-04-02T02:46:20.166Z,83.20
2023-04-02T02:47:20.148Z,80.37
2023-04-02T02:48:20.168Z,80.10
2023-04-02T02:49:20.207Z,79.94
2023-04-02T02:50:20.219Z,78.01
2023-04-02T02:51:20.211Z,78.18
2023-04-02T02:52:20.182Z,76.29
2023-04-02T02:53:20.181Z,77.65
2023-04-02T02:54:20.161Z,76.55
2023-04-02T02:55:20.157Z,78.77
2023-04-02T02:56:20.144Z,79.37
2023-04-02T02:57:20.136Z,79.25
2023-04-02T02:58:20.091Z,78.90
2023-04-02T02:59:20.085Z,80.31
2023-04-02T03:00:20.065Z,77.08
2023-04-02T03:01:20.102Z,79.71
2023-04-02T03:02:20.110Z,77.47
2023-04-02T03:03:20.117Z,78.03
2023-04-02T03:04:20.095Z,79.45
2023-04-02T03:05:20.035Z,80.08
2023-04-02T03:06:19.969Z,78.58
2023-04-02T03:07:19.965Z,78.01
2023-04-02T03:08:20.024Z,81.19
2023-04-02T03:09:20.039Z,78.60
2023-04-02T03:10:20.042Z,81.43
2023-04-02T03:11:20.075Z,80.56
2023-04-02T03:12:20.081Z,79.10
2023-04-02T03:13:20.099Z,76.43
2023-04-02T03:14:20.129Z,81.28
2023-04-02T03:15:20.172Z,77.08
2023-04-02T03:16:20.265Z,76.85
2023-04-02T03:17:20.207Z,76.02
2023-04-02T03:18:20.233Z,73.78
2023-04-02T03:19:20.263Z,77.56
2023-04-02T03:20:20.260Z,77.82
2023-04-02T03:21:20.232Z,78.54
2023-04-02T03:22:20.225Z,78.82
2023-04-02T03:23:20.588Z,79.26
2023-04-02T03:24:20.191Z,83.31
2023-04-02T03:25:20.186Z,78.65
2023-04-02T03:26:20.179Z,79.24
2023-04-02T03:27:20.166Z,79.11
2023-04-02T03:28:20.139Z,79.78
2023-04-02T03:29:20.134Z,73.28
2023-04-02T03:30:20.127Z,78.78
2023-04-02T03:31:20.126Z,78.78
2023-04-02T03:32:20.077Z,76.39
2023-04-02T03:33:20.064Z,75.02
2023-04-02T03:34:20.056Z,78.33
2023-04-02T03:35:20.034Z,76.75
2023-04-02T03:36:20.112Z,75.46
2023-04-02T03:37:20.072Z,76.71
2023-04-02T03:38:20.096Z,75.72
2023-04-02T03:39:20.124Z,73.71
2023-04-02T03:40:20.158Z,76.11
2023-04-02T03:41:20.178Z,77.75
2023-04-02T03:42:20.223Z,74.97
2023-04-02T03:43:20.224Z,73.21
2023-04-02T03:44:20.242Z,75.65
2023-04-02T03:45:20.271Z,76.37
2023-04-02T03:46:20.309Z,77.42
2023-04-02T03:47:20.327Z,76.73
2023-04-02T03:48:20.339Z,74.24
2023-04-02T03:49:20.357Z,70.23
2023-04-02T03:50:20.386Z,68.73
2023-04-02T03:51:20.424Z,69.19
2023-04-02T03:52:20.445Z,72.56
2023-04-02T03:53:20.479Z,68.74
2023-04-02T03:54:20.496Z,72.57
2023-04-02T03:55:20.529Z,70.65
2023-04-02T03:56:20.547Z,68.17
2023-04-02T03:57:20.615Z,64.15
2023-04-02T03:58:20.597Z,64.01
2023-04-02T03:59:20.618Z,67.01
2023-04-02T04:00:20.645Z,67.29
2023-04-02T04:01:20.688Z,62.36
2023-04-02T04:02:20.798Z,59.31
2023-04-02T04:03:20.764Z,57.15
2023-04-02T04:04:20.765Z,58.59
2023-04-02T04:05:20.779Z,59.41
2023-04-02T04:06:21.367Z,58.84
2023-04-02T04:07:20.846Z,54.86
2023-04-02T04:08:20.866Z,51.22
2023-04-02T04:09:20.904Z,52.72
2023-04-02T04:10:20.928Z,56.29
2023-04-02T04:11:20.999Z,54.28
2023-04-02T04:12:20.994Z,51.67
2023-04-02T04:13:21.037Z,49.00
2023-04-02T04:14:21.042Z,50.52
2023-04-02T04:15:21.079Z,53.19
2023-04-02T04:16:21.128Z,55.51
2023-04-02T04:17:21.182Z,52.57
2023-04-02T04:18:21.173Z,50.62
2023-04-02T04:19:21.185Z,47.08
2023-04-02T04:20:21.222Z,51.31
2023-04-02T04:21:21.292Z,53.16
2023-04-02T04:22:21.292Z,49.43
2023-04-02T04:23:21.316Z,43.54
2023-04-02T04:24:21.366Z,43.61
2023-04-02T04:25:21.386Z,46.48
2023-04-02T04:26:21.425Z,45.77
2023-04-02T04:27:21.475Z,45.08
2023-04-02T04:28:21.507Z,43.26
2023-04-02T04:29:21.515Z,38.62
2023-04-02T04:30:21.549Z,40.35
2023-04-02T04:31:22.271Z,38.71
2023-04-02T04:32:21.643Z,43.71
2023-04-02T04:33:21.650Z,41.17
2023-04-02T04:34:21.682Z,37.41
2023-04-02T04:35:21.750Z,38.93
2023-04-02T04:36:21.743Z,39.18
2023-04-02T04:37:21.777Z,37.74
2023-04-02T04:38:21.834Z,40.93
2023-04-02T04:39:21.873Z,40.03
2023-04-02T04:40:21.893Z,36.13
2023-04-02T04:41:21.958Z,39.12
2023-04-02T04:42:21.937Z,37.39
2023-04-02T04:43:21.975Z,39.87
2023-04-02T04:44:22.031Z,36.95
2023-04-02T04:45:22.069Z,33.35
2023-04-02T04:46:22.626Z,35.25
2023-04-02T04:47:22.140Z,34.10
2023-04-02T04:48:22.131Z,34.90
2023-04-02T04:49:22.164Z,35.90
2023-04-02T04:50:22.201Z,33.87
2023-04-02T04:51:22.254Z,31.44
2023-04-02T04:52:22.266Z,28.33
2023-04-02T04:53:22.294Z,32.31
2023-04-02T04:54:22.313Z,34.23
2023-04-02T04:55:22.362Z,34.06
2023-04-02T04:56:22.395Z,29.48
2023-04-02T04:57:22.452Z,26.49
2023-04-02T04:58:22.451Z,26.63
2023-04-02T04:59:22.469Z,28.33
2023-04-02T05:00:22.526Z,29.57
2023-04-02T05:01:22.583Z,29.53
2023-04-02T05:02:22.771Z,25.13
2023-04-02T05:03:22.609Z,26.49
2023-04-02T05:04:22.701Z,28.52
2023-04-02T05:05:22.682Z,30.40
2023-04-02T05:06:22.718Z,32.59
2023-04-02T05:07:22.751Z,30.05
2023-04-02T05:08:22.787Z,28.77
2023-04-02T05:09:22.827Z,26.66
2023-04-02T05:10:22.867Z,27.52
2023-04-02T05:11:22.887Z,28.79
2023-04-02T05:12:22.921Z,30.50
2023-04-02T05:13:22.919Z,30.59
2023-04-02T05:14:22.883Z,29.36
2023-04-02T05:15:22.892Z,30.16
2023-04-02T05:16:22.895Z,30.01
2023-04-02T05:17:22.912Z,29.76
2023-04-02T05:18:22.826Z,30.37
2023-04-02T05:19:22.820Z,28.64
2023-04-02T05:20:22.801Z,26.17
2023-04-02T05:21:22.801Z,28.98
2023-04-02T05:22:22.790Z,29.75
2023-04-02T05:23:22.773Z,28.59
2023-04-02T05:24:22.773Z,28.36
2023-04-02T05:25:22.813Z,27.86
2023-04-02T05:26:22.858Z,26.37
2023-04-02T05:27:22.869Z,30.99
2023-04-02T05:28:22.904Z,32.07
2023-04-02T05:29:22.946Z,28.07
2023-04-02T05:30:22.974Z,28.02
2023-04-02T05:31:23.055Z,25.20
2023-04-02T05:32:23.101Z,26.91
2023-04-02T05:33:23.082Z,29.59
2023-04-02T05:34:23.123Z,29.19
2023-04-02T05:35:23.167Z,25.94
2023-04-02T05:36:23.248Z,26.71
2023-04-02T05:37:23.247Z,29.63
2023-04-02T05:38:23.269Z,31.06
2023-04-02T05:39:23.302Z,32.72
2023-04-02T05:40:23.358Z,26.86
2023-04-02T05:41:23.382Z,26.35
2023-04-02T05:42:23.407Z,27.64
2023-04-02T05:43:23.423Z,32.31
2023-04-02T05:44:23.456Z,31.26
2023-04-02T05:45:23.492Z,31.50
2023-04-02T05:46:23.553Z,28.61
2023-04-02T05:47:23.647Z,29.10
2023-04-02T05:48:23.591Z,32.63
2023-04-02T05:49:23.627Z,30.92
2023-04-02T05:50:23.647Z,30.96
2023-04-02T05:51:23.676Z,29.22
2023-04-02T05:52:23.729Z,26.57
2023-04-02T05:53:23.754Z,28.67
2023-04-02T05:54:23.787Z,30.34
2023-04-02T05:55:23.787Z,33.30
2023-04-02T05:56:23.816Z,31.58
2023-04-02T05:57:39.576Z,29.57
2023-04-02T05:59:24.840Z,29.96
2023-04-02T06:00:23.813Z,30.17
2023-04-02T06:01:23.788Z,31.32
2023-04-02T06:02:23.883Z,31.56
2023-04-02T06:03:23.774Z,31.24
2023-04-02T06:04:23.736Z,34.96
2023-04-02T06:05:23.720Z,33.27
2023-04-02T06:06:23.708Z,33.25
2023-04-02T06:07:23.711Z,31.34
2023-04-02T06:08:23.698Z,25.00
2023-04-02T06:09:23.684Z,28.13
2023-04-02T06:10:24.945Z,30.16
2023-04-02T06:11:23.649Z,34.83
2023-04-02T06:12:23.650Z,28.96
2023-04-02T06:13:23.628Z,28.21
2023-04-02T06:14:23.598Z,28.14
2023-04-02T06:15:23.579Z,29.09
2023-04-02T06:16:23.597Z,31.05
2023-04-02T06:17:23.649Z,29.92
2023-04-02T06:18:23.541Z,25.80
2023-04-02T06:19:23.551Z,25.95
2023-04-02T06:20:23.511Z,25.61
2023-04-02T06:21:23.507Z,29.43
2023-04-02T06:22:23.500Z,28.75
2023-04-02T06:23:23.479Z,25.08
2023-04-02T06:24:23.460Z,29.27
2023-04-02T06:25:23.478Z,28.29
2023-04-02T06:26:23.429Z,28.86
2023-04-02T06:27:23.455Z,30.80
2023-04-02T06:28:23.419Z,32.55
2023-04-02T06:29:23.415Z,25.92
2023-04-02T06:30:23.398Z,29.06
2023-04-02T06:31:23.462Z,29.95
2023-04-02T06:32:23.401Z,30.17
2023-04-02T06:33:23.368Z,30.28
2023-04-02T06:34:23.334Z,30.21
2023-04-02T06:35:23.328Z,28.27
2023-04-02T06:36:23.379Z,30.19
2023-04-02T06:37:23.309Z,32.39
2023-04-02T06:38:23.274Z,29.21
2023-04-02T06:39:23.277Z,27.88
2023-04-02T06:40:23.249Z,25.00
2023-04-02T06:41:23.238Z,29.26
2023-04-02T06:42:23.209Z,32.92
2023-04-02T06:43:23.245Z,32.68
2023-04-02T06:44:23.258Z,30.02
2023-04-02T06:45:23.285Z,26.75
2023-04-02T06:46:23.328Z,28.91
2023-04-02T06:47:23.341Z,29.04
2023-04-02T06:48:23.392Z,33.57
2023-04-02T06:49:23.407Z,26.72
2023-04-02T06:50:23.456Z,27.41
2023-04-02T06:51:23.464Z,29.77
2023-04-02T06:52:23.496Z,29.50
2023-04-02T06:53:23.531Z,32.27
2023-04-02T06:54:23.566Z,29.24
2023-04-02T06:55:23.607Z,27.63
2023-04-02T06:56:23.631Z,26.98
2023-04-02T06:57:23.677Z,25.45
2023-04-02T06:58:23.681Z,29.82
2023-04-02T06:59:23.691Z,30.92
2023-04-02T07:00:23.723Z,26.56
2023-04-02T07:01:23.742Z,26.65
2023-04-02T07:02:23.702Z,27.15
2023-04-02T07:03:23.691Z,28.01
2023-04-02T07:04:23.716Z,28.07
2023-04-02T07:05:23.656Z,26.34
2023-04-02T07:06:23.648Z,27.42
2023-04-02T07:07:23.622Z,28.80
2023-04-02T07:08:23.628Z,30.78
2023-04-02T07:09:23.617Z,26.99
2023-04-02T07:10:23.603Z,24.69
2023-04-02T07:11:23.587Z,25.00
2023-04-02T07:12:23.588Z,30.21
2023-04-02T07:13:23.553Z,32.85
2023-04-02T07:14:23.542Z,32.11
2023-04-02T07:15:23.526Z,33.99
2023-04-02T07:16:23.572Z,34.77
2023-04-02T07:17:23.572Z,38.88
2023-04-02T07:18:23.597Z,34.58
2023-04-02T07:19:23.608Z,39.26
2023-04-02T07:20:23.654Z,34.20
2023-04-02T07:21:23.647Z,35.58
2023-04-02T07:22:23.740Z,35.76
2023-04-02T07:23:23.704Z,36.70
2023-04-02T07:24:23.704Z,36.05
2023-04-02T07:25:23.732Z,43.17
2023-04-02T07:26:23.748Z,40.84
2023-04-02T07:27:23.762Z,44.56
2023-04-02T07:28:23.844Z,43.56
2023-04-02T07:29:23.792Z,46.10
2023-04-02T07:30:23.861Z,45.94
2023-04-02T07:31:23.876Z,45.14
2023-04-02T07:32:23.859Z,45.59
2023-04-02T07:33:23.868Z,44.47
2023-04-02T07:34:23.868Z,46.69
2023-04-02T07:35:23.869Z,45.48
2023-04-02T07:36:23.972Z,47.53
2023-04-02T07:37:23.906Z,47.22
2023-04-02T07:38:23.938Z,48.34
2023-04-02T07:39:23.935Z,48.08
2023-04-02T07:40:24.006Z,46.73
2023-04-02T07:41:23.977Z,49.83
2023-04-02T07:42:23.981Z,47.39
2023-04-02T07:43:24.032Z,47.49
2023-04-02T07:44:24.001Z,46.71
2023-04-02T07:45:23.999Z,46.58
2023-04-02T07:46:24.035Z,46.07
2023-04-02T07:47:24.012Z,48.07
2023-04-02T07:48:24.019Z,45.64
2023-04-02T07:49:24.025Z,45.54
2023-04-02T07:50:24.010Z,46.08
2023-04-02T07:51:24.005Z,47.35
2023-04-02T07:52:23.989Z,46.06
2023-04-02T07:53:23.992Z,44.61
2023-04-02T07:54:23.993Z,42.50
2023-04-02T07:55:23.985Z,43.52
2023-04-02T07:56:23.988Z,42.77
2023-04-02T07:57:24.032Z,43.28
2023-04-02T07:58:23.987Z,42.01
2023-04-02T07:59:23.967Z,41.63
2023-04-02T08:00:23.974Z,43.94
2023-04-02T08:01:23.990Z,43.83
2023-04-02T08:02:24.080Z,40.44
2023-04-02T08:03:24.007Z,38.87
2023-04-02T08:04:24.018Z,37.36
2023-04-02T08:05:23.911Z,34.89
2023-04-02T08:06:23.908Z,34.15
2023-04-02T08:07:23.917Z,34.56
2023-04-02T08:08:23.887Z,38.74
2023-04-02T08:09:23.874Z,38.00
2023-04-02T08:10:23.851Z,32.81
2023-04-02T08:11:23.832Z,31.04
2023-04-02T08:12:23.824Z,29.85
2023-04-02T08:13:23.826Z,29.52
2023-04-02T08:14:23.759Z,25.92
2023-04-02T08:15:23.759Z,29.06
2023-04-02T08:16:23.733Z,28.69
2023-04-02T08:17:23.724Z,25.95
2023-04-02T08:18:23.706Z,27.98
2023-04-02T08:19:23.717Z,25.19
2023-04-02T08:20:23.651Z,29.95
2023-04-02T08:21:23.602Z,30.20
2023-04-02T08:22:23.594Z,32.38
2023-04-02T08:23:23.590Z,25.00
2023-04-02T08:24:23.572Z,29.23
2023-04-02T08:25:23.543Z,31.27
2023-04-02T08:26:23.570Z,30.10
2023-04-02T08:27:23.608Z,31.18
2023-04-02T08:28:23.573Z,32.74
2023-04-02T08:29:23.590Z,26.01
2023-04-02T08:30:23.584Z,28.50
2023-04-02T08:31:23.694Z,28.81
2023-04-02T08:32:23.649Z,30.87
2023-04-02T08:33:23.636Z,31.72
2023-04-02T08:34:23.636Z,34.51
2023-04-02T08:35:23.632Z,38.57
2023-04-02T08:36:23.666Z,37.51
2023-04-02T08:37:23.659Z,34.45
2023-04-02T08:38:23.665Z,33.64
2023-04-02T08:39:23.660Z,30.99
2023-04-02T08:40:23.647Z,31.05
2023-04-02T08:41:23.603Z,29.49
2023-04-02T08:42:23.545Z,16.13
2023-04-02T08:43:23.733Z,15.65
2023-04-02T08:44:23.503Z,20.26
2023-04-02T08:45:25.427Z,31.14
2023-04-02T08:46:23.510Z,31.64
2023-04-02T08:47:23.421Z,31.81
2023-04-02T08:48:23.352Z,30.41
2023-04-02T08:49:23.312Z,28.54
2023-04-02T08:50:23.277Z,31.85
2023-04-02T08:51:23.235Z,30.74
2023-04-02T08:52:23.263Z,25.00
2023-04-02T08:53:23.177Z,29.76
2023-04-02T08:54:23.310Z,33.53
2023-04-02T08:55:23.126Z,30.47
2023-04-02T08:56:23.104Z,29.95
2023-04-02T08:57:23.163Z,31.15
2023-04-02T08:58:23.038Z,34.31
2023-04-02T08:59:23.057Z,42.19
2023-04-02T09:00:23.052Z,31.63
2023-04-02T09:01:23.031Z,37.48
2023-04-02T09:02:23.103Z,34.73
2023-04-02T09:03:23.001Z,41.80
2023-04-02T09:04:23.077Z,42.02
2023-04-02T09:05:22.952Z,35.31
2023-04-02T09:06:22.934Z,33.98
2023-04-02T09:07:22.931Z,39.75
2023-04-02T09:08:22.894Z,28.07
2023-04-02T09:09:22.865Z,31.21
2023-04-02T09:10:22.860Z,25.00
2023-04-02T09:11:22.828Z,29.32
2023-04-02T09:12:22.810Z,37.86
2023-04-02T09:13:22.781Z,35.92
2023-04-02T09:14:22.768Z,30.47
2023-04-02T09:15:22.772Z,25.77
2023-04-02T09:16:22.793Z,29.18
2023-04-02T09:17:22.729Z,28.69
2023-04-02T09:18:22.735Z,36.44
2023-04-02T09:19:22.695Z,37.55
2023-04-02T09:20:22.648Z,33.81
2023-04-02T09:21:22.651Z,33.47
2023-04-02T09:22:22.632Z,28.57
2023-04-02T09:23:22.573Z,32.78
2023-04-02T09:24:22.553Z,38.61
2023-04-02T09:25:22.521Z,31.68
2023-04-02T09:26:22.494Z,37.60
2023-04-02T09:27:22.463Z,38.39
2023-04-02T09:28:22.441Z,36.47
2023-04-02T09:29:22.413Z,41.63
2023-04-02T09:30:22.401Z,29.24
2023-04-02T09:31:22.423Z,30.02
2023-04-02T09:32:22.347Z,33.47
2023-04-02T09:33:22.337Z,33.78
2023-04-02T09:34:22.303Z,37.17
2023-04-02T09:35:26.021Z,39.94
2023-04-02T09:36:22.348Z,39.41
2023-04-02T09:37:22.241Z,40.49
2023-04-02T09:38:22.215Z,39.13
2023-04-02T09:39:22.163Z,34.72
2023-04-02T09:40:22.136Z,38.93
2023-04-02T09:41:22.096Z,34.68
2023-04-02T09:42:22.063Z,34.83
2023-04-02T09:43:22.027Z,34.03
2023-04-02T09:44:22.027Z,35.97
2023-04-02T09:45:21.957Z,30.21
2023-04-02T09:46:21.954Z,25.73
2023-04-02T09:47:21.959Z,33.13
2023-04-02T09:48:21.853Z,33.59
2023-04-02T09:49:21.867Z,28.26
2023-04-02T09:50:21.959Z,32.89
2023-04-02T09:51:21.803Z,33.42
2023-04-02T09:52:21.731Z,33.65
2023-04-02T09:53:21.706Z,33.51
2023-04-02T09:54:21.676Z,31.56
2023-04-02T09:55:21.647Z,26.70
2023-04-02T09:56:21.583Z,24.17
2023-04-02T09:57:21.575Z,26.70
2023-04-02T09:58:21.511Z,26.99
2023-04-02T09:59:21.551Z,27.44
2023-04-02T10:00:30.723Z,27.20
2023-04-02T10:01:22.438Z,27.35
2023-04-02T10:02:21.364Z,28.43
2023-04-02T10:03:21.319Z,29.86
2023-04-02T10:04:21.349Z,35.80
2023-04-02T10:05:30.047Z,43.02
2023-04-02T10:06:22.239Z,27.39
2023-04-02T10:07:21.185Z,28.96
2023-04-02T10:08:21.157Z,32.92
2023-04-02T10:09:21.112Z,32.28
2023-04-02T10:10:21.115Z,32.74
2023-04-02T10:11:21.044Z,29.81
2023-04-02T10:12:21.021Z,30.73
2023-04-02T10:13:20.972Z,29.83
2023-04-02T10:14:21.048Z,35.86
2023-04-02T10:15:21.016Z,36.70
2023-04-02T10:16:21.128Z,37.85
2023-04-02T10:17:21.067Z,28.31
2023-04-02T10:18:21.097Z,29.93
2023-04-02T10:19:21.121Z,28.54
2023-04-02T10:20:21.136Z,27.44
2023-04-02T10:21:21.219Z,34.41
2023-04-02T10:22:21.199Z,38.42
2023-04-02T10:23:21.229Z,32.25
2023-04-02T10:24:21.236Z,35.72
2023-04-02T10:25:21.300Z,34.78
2023-04-02T10:26:21.290Z,31.81
2023-04-02T10:27:21.321Z,36.41
2023-04-02T10:28:21.352Z,32.05
2023-04-02T10:29:21.381Z,38.53
2023-04-02T10:30:21.395Z,31.41
2023-04-02T10:31:21.472Z,31.21
2023-04-02T10:32:21.430Z,27.03
2023-04-02T10:33:21.511Z,32.00
2023-04-02T10:34:21.492Z,40.14
2023-04-02T10:35:21.495Z,38.02
2023-04-02T10:36:21.481Z,34.79
2023-04-02T10:37:21.500Z,39.28
2023-04-02T10:38:21.462Z,42.02
2023-04-02T10:39:21.464Z,37.17
2023-04-02T10:40:21.492Z,38.08
2023-04-02T10:41:21.504Z,40.29
2023-04-02T10:42:21.528Z,32.44
2023-04-02T10:43:21.522Z,38.06
2023-04-02T10:44:21.529Z,34.67
2023-04-02T10:45:21.537Z,30.41
2023-04-02T10:46:23.651Z,35.51
2023-04-02T10:47:21.511Z,33.84
2023-04-02T10:48:21.491Z,35.69
2023-04-02T10:49:21.469Z,32.02
2023-04-02T10:50:21.420Z,35.93
2023-04-02T10:51:21.379Z,33.95
2023-04-02T10:52:21.353Z,37.43
2023-04-02T10:53:21.298Z,36.58
2023-04-02T10:54:21.268Z,37.10
2023-04-02T10:55:21.246Z,41.64
2023-04-02T10:56:21.286Z,38.95
2023-04-02T10:57:21.302Z,41.82
2023-04-02T10:58:21.331Z,39.76
2023-04-02T10:59:21.373Z,34.62
2023-04-02T11:00:21.422Z,34.76
2023-04-02T11:01:21.476Z,33.76
2023-04-02T11:02:21.512Z,30.05
2023-04-02T11:03:21.605Z,31.27
2023-04-02T11:04:21.565Z,37.19
2023-04-02T11:05:21.595Z,43.10
2023-04-02T11:06:21.636Z,32.50
2023-04-02T11:07:21.698Z,25.82
2023-04-02T11:08:21.718Z,32.63
2023-04-02T11:09:21.761Z,41.00
2023-04-02T11:10:21.804Z,34.70
2023-04-02T11:11:21.861Z,41.30
2023-04-02T11:12:21.860Z,35.39
2023-04-02T11:13:21.992Z,35.89
2023-04-02T11:14:21.953Z,40.49
2023-04-02T11:15:22.026Z,43.13
2023-04-02T11:16:22.074Z,48.70
2023-04-02T11:17:22.174Z,49.53
2023-04-02T11:18:22.115Z,43.77
2023-04-02T11:19:22.162Z,46.49
2023-04-02T11:20:22.191Z,47.28
2023-04-02T11:21:22.241Z,41.31
2023-04-02T11:22:22.270Z,43.46
2023-04-02T11:23:22.321Z,43.89
2023-04-02T11:24:22.315Z,49.01
2023-04-02T11:25:22.358Z,39.97
2023-04-02T11:26:22.385Z,45.55
2023-04-02T11:27:22.421Z,44.58
2023-04-02T11:28:23.027Z,44.22
2023-04-02T11:29:22.607Z,43.52
2023-04-02T11:30:22.562Z,43.04
2023-04-02T11:31:22.596Z,45.23
2023-04-02T11:32:22.675Z,42.33
2023-04-02T11:33:30.008Z,47.82
2023-04-02T11:34:23.606Z,47.26
2023-04-02T11:35:22.601Z,48.63
2023-04-02T11:36:22.596Z,46.74
2023-04-02T11:37:22.504Z,47.36
2023-04-02T11:38:22.485Z,39.74
2023-04-02T11:39:22.453Z,40.39
2023-04-02T11:40:22.412Z,39.68
2023-04-02T11:41:22.399Z,40.08
2023-04-02T11:42:22.368Z,40.19
2023-04-02T11:43:22.403Z,42.49
2023-04-02T11:44:22.413Z,40.05
2023-04-02T11:45:22.453Z,37.66
2023-04-02T11:46:22.502Z,45.40
2023-04-02T11:47:22.539Z,41.01
2023-04-02T11:48:22.487Z,37.76
2023-04-02T11:49:22.489Z,42.08
2023-04-02T11:50:22.478Z,45.98
2023-04-02T11:51:22.579Z,44.75
2023-04-02T11:52:22.462Z,48.66
2023-04-02T11:53:22.441Z,38.45
2023-04-02T11:54:22.440Z,42.21
2023-04-02T11:55:22.451Z,40.06
2023-04-02T11:56:22.458Z,39.39
2023-04-02T11:57:22.508Z,41.83
2023-04-02T11:58:22.497Z,43.94
2023-04-02T11:59:22.536Z,30.46
2023-04-02T12:00:22.581Z,35.33
2023-04-02T12:01:22.639Z,46.86
2023-04-02T12:02:22.723Z,48.19
2023-04-02T12:03:22.771Z,44.03
2023-04-02T12:04:22.662Z,52.28
2023-04-02T12:05:22.724Z,49.76
2023-04-02T12:06:22.662Z,51.13
2023-04-02T12:07:22.646Z,46.83
2023-04-02T12:08:22.602Z,49.38
2023-04-02T12:09:22.620Z,49.48
2023-04-02T12:10:22.545Z,49.65
2023-04-02T12:11:22.542Z,51.68
2023-04-02T12:12:22.501Z,43.90
2023-04-02T12:13:22.477Z,48.09
2023-04-02T12:14:22.479Z,50.27
2023-04-02T12:15:22.416Z,48.70
2023-04-02T12:16:22.430Z,47.64
2023-04-02T12:17:22.427Z,36.57
2023-04-02T12:18:22.342Z,43.33
2023-04-02T12:19:22.317Z,48.19
2023-04-02T12:20:22.302Z,52.76
2023-04-02T12:21:22.280Z,46.96
2023-04-02T12:22:22.250Z,43.22
2023-04-02T12:23:22.260Z,37.51
2023-04-02T12:24:22.243Z,41.04
2023-04-02T12:25:22.223Z,44.58
2023-04-02T12:26:23.060Z,49.51
2023-04-02T12:27:22.255Z,50.23
2023-04-02T12:28:22.185Z,42.64
2023-04-02T12:29:22.163Z,43.53
2023-04-02T12:30:22.152Z,45.65
2023-04-02T12:31:22.153Z,44.09
2023-04-02T12:32:22.100Z,47.76
2023-04-02T12:33:22.097Z,50.62
2023-04-02T12:34:22.079Z,51.94
2023-04-02T12:35:22.063Z,48.33
2023-04-02T12:36:22.116Z,45.87
2023-04-02T12:37:22.010Z,53.25
2023-04-02T12:38:21.974Z,49.00
2023-04-02T12:39:21.949Z,55.59
2023-04-02T12:40:21.927Z,57.12
2023-04-02T12:41:21.902Z,58.54
2023-04-02T12:42:21.906Z,56.78
2023-04-02T12:43:21.871Z,50.44
2023-04-02T12:44:21.856Z,53.71
2023-04-02T12:45:21.839Z,53.06
2023-04-02T12:46:21.850Z,47.83
2023-04-02T12:47:21.816Z,44.16
2023-04-02T12:48:21.776Z,49.85
2023-04-02T12:49:21.753Z,54.86
2023-04-02T12:50:21.740Z,44.52
2023-04-02T12:51:21.760Z,50.26
2023-04-02T12:52:21.728Z,57.78
2023-04-02T12:53:21.680Z,52.90